createdAt,value
2019-03-04T00:04:15.212Z,64.09
2019-03-04T00:09:16.786Z,64.04
2019-03-04T00:14:18.378Z,64.01
2019-03-04T00:19:19.945Z,64.00
2019-03-04T00:24:21.520Z,63.98
2019-03-04T00:29:23.103Z,63.93
2019-03-04T00:34:24.811Z,63.85
2019-03-04T00:39:26.399Z,63.75
2019-03-04T00:44:27.979Z,63.67
2019-03-04T00:49:29.568Z,63.60
2019-03-04T00:54:31.132Z,63.54
2019-03-04T00:59:32.705Z,63.54
2019-03-04T01:04:34.268Z,63.58
2019-03-04T01:09:35.823Z,63.61
2019-03-04T01:14:37.361Z,63.62
2019-03-04T01:19:38.931Z,63.66
2019-03-04T01:24:40.610Z,63.73
2019-03-04T01:29:42.339Z,63.79
2019-03-04T01:34:53.103Z,63.72
2019-03-04T01:39:54.656Z,63.76
2019-03-04T01:44:56.205Z,63.89
2019-03-04T01:49:57.791Z,63.92
2019-03-04T01:54:59.350Z,63.93
2019-03-04T02:00:00.955Z,63.89
2019-03-04T02:05:03.027Z,63.88
2019-03-04T02:10:06.292Z,63.91
2019-03-04T02:15:09.756Z,63.89
2019-03-04T02:20:12.862Z,63.85
2019-03-04T02:25:15.879Z,63.87
2019-03-04T02:30:20.532Z,63.88
2019-03-04T02:35:22.066Z,63.83
2019-03-04T02:40:23.750Z,63.80
2019-03-04T02:45:25.445Z,63.78
2019-03-04T02:50:26.996Z,63.79
2019-03-04T02:55:28.558Z,63.80
2019-03-04T03:00:30.121Z,63.83
2019-03-04T03:05:31.692Z,63.80
2019-03-04T03:10:33.232Z,63.79
2019-03-04T03:15:34.759Z,63.74
2019-03-04T03:20:36.429Z,63.70
2019-03-04T03:25:37.973Z,63.69
2019-03-04T03:30:39.517Z,63.65
2019-03-04T03:35:41.056Z,63.64
2019-03-04T03:40:42.730Z,63.60
2019-03-04T03:45:44.301Z,63.59
2019-03-04T03:50:45.848Z,63.53
2019-03-04T03:55:47.429Z,63.55
2019-03-04T04:00:49.007Z,63.43
2019-03-04T04:05:50.564Z,63.39
2019-03-04T04:10:52.203Z,63.41
2019-03-04T04:15:53.735Z,63.38
2019-03-04T04:20:55.278Z,63.33
2019-03-04T04:25:56.814Z,63.37
2019-03-04T04:30:58.358Z,63.33
2019-03-04T04:35:59.940Z,63.29
2019-03-04T04:41:01.479Z,63.22
2019-03-04T04:46:03.116Z,63.20
2019-03-04T04:51:04.820Z,63.16
2019-03-04T04:56:06.397Z,63.14
2019-03-04T05:01:07.964Z,63.09
2019-03-04T05:06:09.555Z,63.03
2019-03-04T05:11:11.211Z,62.90
2019-03-04T05:16:12.861Z,62.74
2019-03-04T05:21:14.403Z,62.62
2019-03-04T05:26:15.960Z,62.49
2019-03-04T05:31:17.596Z,62.39
2019-03-04T05:36:19.148Z,62.31
2019-03-04T05:41:20.690Z,62.21
2019-03-04T05:46:22.260Z,62.14
2019-03-04T05:51:23.965Z,62.06
2019-03-04T05:56:25.529Z,61.98
2019-03-04T06:01:31.679Z,61.87
2019-03-04T06:06:51.499Z,61.76
2019-03-04T06:11:53.077Z,61.66
2019-03-04T06:16:54.623Z,61.62
2019-03-04T06:21:56.204Z,61.49
2019-03-04T06:26:57.743Z,61.36
2019-03-04T06:31:59.337Z,61.21
2019-03-04T06:37:00.875Z,61.08
2019-03-04T06:42:02.533Z,60.81
2019-03-04T06:47:04.176Z,60.47
2019-03-04T06:52:05.860Z,59.99
2019-03-04T06:57:31.269Z,59.72
2019-03-04T07:02:33.138Z,59.94
2019-03-04T07:07:34.803Z,59.95
2019-03-04T07:12:36.391Z,59.96
2019-03-04T07:17:38.144Z,59.94
2019-03-04T07:22:39.729Z,59.69
2019-03-04T07:27:41.395Z,59.56
2019-03-04T07:32:42.981Z,59.29
2019-03-04T07:37:44.899Z,58.91
2019-03-04T07:42:46.492Z,58.82
2019-03-04T07:47:48.198Z,59.00
2019-03-04T07:52:55.813Z,58.81
2019-03-04T07:57:57.560Z,58.57
2019-03-04T08:02:59.306Z,58.52
2019-03-04T08:08:01.013Z,58.17
2019-03-04T08:13:09.368Z,57.47
2019-03-04T08:18:11.044Z,57.07
2019-03-04T08:23:12.748Z,56.92
2019-03-04T08:28:14.604Z,56.91
2019-03-04T08:33:16.299Z,57.11
2019-03-04T08:38:17.991Z,56.94
2019-03-04T08:43:19.593Z,56.83
2019-03-04T08:48:21.283Z,56.63
2019-03-04T08:53:22.881Z,56.49
2019-03-04T08:58:24.589Z,56.52
2019-03-04T09:03:26.141Z,56.45
2019-03-04T09:08:27.691Z,56.75
2019-03-04T09:13:29.249Z,56.30
2019-03-04T09:18:32.088Z,56.06
2019-03-04T09:23:33.878Z,56.83
2019-03-04T09:28:35.548Z,56.98
2019-03-04T09:33:37.101Z,56.72
2019-03-04T09:38:38.641Z,56.27
2019-03-04T09:43:40.191Z,55.67
2019-03-04T09:48:41.743Z,54.83
2019-03-04T09:53:43.320Z,52.95
2019-03-04T09:58:44.881Z,52.36
2019-03-04T10:04:27.737Z,52.60
2019-03-04T10:09:56.967Z,51.80
2019-03-04T10:15:43.242Z,51.75
2019-03-04T10:21:32.235Z,51.91
2019-03-04T10:26:59.421Z,51.40
2019-03-04T10:32:15.005Z,51.26
2019-03-04T10:37:40.171Z,51.09
2019-03-04T10:43:08.320Z,51.22
2019-03-04T10:48:09.875Z,50.43
2019-03-04T10:53:11.488Z,48.85
2019-03-04T10:58:13.071Z,48.54
2019-03-04T11:03:14.733Z,47.26
2019-03-04T11:08:16.287Z,46.67
2019-03-04T11:13:18.170Z,46.25
2019-03-04T11:18:19.873Z,46.21
2019-03-04T11:23:21.641Z,46.82
2019-03-04T11:28:23.301Z,46.88
2019-03-04T11:33:24.861Z,46.86
2019-03-04T11:38:56.537Z,47.40
2019-03-04T11:43:58.100Z,47.86
2019-03-04T11:48:59.686Z,49.48
2019-03-04T11:54:01.263Z,50.37
2019-03-04T11:59:03.015Z,50.82
2019-03-04T12:04:04.666Z,50.31
2019-03-04T12:09:09.903Z,41.46
2019-03-04T12:14:11.575Z,33.47
2019-03-04T12:19:13.240Z,33.61
2019-03-04T12:24:14.894Z,37.90
2019-03-04T12:29:16.451Z,41.09
2019-03-04T12:34:24.960Z,42.70
2019-03-04T12:39:26.697Z,43.26
2019-03-04T12:44:28.279Z,43.70
2019-03-04T12:49:29.848Z,43.85
2019-03-04T12:54:31.416Z,44.13
2019-03-04T12:59:32.974Z,44.28
2019-03-04T13:04:34.520Z,43.76
2019-03-04T13:09:36.080Z,43.17
2019-03-04T13:14:37.668Z,42.78
2019-03-04T13:19:39.212Z,42.60
2019-03-04T13:24:40.877Z,42.32
2019-03-04T13:29:42.540Z,42.03
2019-03-04T13:34:44.098Z,42.05
2019-03-04T13:39:45.650Z,41.77
2019-03-04T13:44:47.212Z,41.69
2019-03-04T13:49:48.904Z,41.59
2019-03-04T13:54:50.490Z,41.35
2019-03-04T13:59:52.137Z,41.13
2019-03-04T14:04:53.699Z,41.58
2019-03-04T14:09:55.268Z,41.80
2019-03-04T14:14:56.819Z,42.10
2019-03-04T14:19:58.387Z,42.40
2019-03-04T14:24:59.947Z,41.57
2019-03-04T14:30:01.620Z,39.99
2019-03-04T14:35:03.959Z,39.49
2019-03-04T14:40:06.393Z,38.85
2019-03-04T14:45:10.266Z,39.79
2019-03-04T14:50:13.157Z,40.45
2019-03-04T14:55:16.218Z,41.34
2019-03-04T15:00:20.412Z,41.81
2019-03-04T15:05:22.174Z,42.19
2019-03-04T15:10:23.889Z,41.45
2019-03-04T15:15:25.755Z,42.17
2019-03-04T15:20:28.129Z,41.88
2019-03-04T15:25:30.490Z,41.86
2019-03-04T15:30:32.309Z,41.98
2019-03-04T15:35:34.090Z,42.04
2019-03-04T15:40:35.956Z,41.88
2019-03-04T15:45:41.584Z,41.91
2019-03-04T15:50:43.363Z,41.96
2019-03-04T15:55:46.123Z,43.39
2019-03-04T16:00:48.693Z,43.88
2019-03-04T16:05:50.335Z,44.07
2019-03-04T16:10:52.160Z,43.85
2019-03-04T16:15:53.762Z,44.62
2019-03-04T16:20:55.504Z,45.56
2019-03-04T16:25:57.209Z,46.04
2019-03-04T16:30:59.310Z,46.40
2019-03-04T16:36:01.098Z,46.56
2019-03-04T16:41:02.916Z,46.80
2019-03-04T16:52:12.637Z,47.33
2019-03-04T16:57:14.307Z,47.75
2019-03-04T17:02:15.994Z,50.75
2019-03-04T17:07:17.681Z,53.64
2019-03-04T17:12:19.411Z,55.21
2019-03-04T17:17:21.122Z,56.48
2019-03-04T17:22:22.869Z,57.17
2019-03-04T17:27:24.489Z,57.65
2019-03-04T17:32:26.289Z,57.97
2019-03-04T17:37:28.437Z,58.37
2019-03-04T17:42:30.443Z,58.93
2019-03-04T17:47:32.013Z,59.18
2019-03-04T17:52:33.658Z,59.11
2019-03-04T17:57:35.374Z,59.42
2019-03-04T18:02:37.309Z,59.43
2019-03-04T18:07:39.745Z,59.68
2019-03-04T18:12:41.751Z,60.10
2019-03-04T18:17:43.447Z,60.45
2019-03-04T18:22:45.369Z,60.59
2019-03-04T18:27:49.932Z,60.78
2019-03-04T18:33:42.214Z,60.74
2019-03-04T18:39:11.942Z,60.72
2019-03-04T18:44:49.526Z,60.88
2019-03-04T18:49:51.260Z,60.93
2019-03-04T18:54:53.212Z,60.89
2019-03-04T18:59:54.962Z,60.65
2019-03-04T19:04:57.262Z,60.48
2019-03-04T19:09:59.343Z,60.35
2019-03-04T19:15:01.633Z,60.24
2019-03-04T19:20:07.665Z,60.25
2019-03-04T19:25:09.961Z,60.33
2019-03-04T19:30:12.547Z,60.61
2019-03-04T19:35:14.691Z,60.50
2019-03-04T19:40:17.188Z,60.50
2019-03-04T19:45:19.354Z,60.53
2019-03-04T19:50:21.510Z,60.84
2019-03-04T19:55:23.617Z,61.04
2019-03-04T20:00:27.639Z,61.19
2019-03-04T20:05:30.300Z,61.30
2019-03-04T20:10:32.317Z,61.28
2019-03-04T20:15:34.394Z,61.33
2019-03-04T20:20:36.424Z,61.39
2019-03-04T20:25:38.301Z,61.55
2019-03-04T20:30:40.161Z,61.44
2019-03-04T20:35:42.581Z,61.42
2019-03-04T20:40:44.362Z,61.44
2019-03-04T20:45:46.182Z,61.38
2019-03-04T20:50:48.442Z,61.36
2019-03-04T20:55:50.582Z,61.37
2019-03-04T21:00:53.060Z,61.30
2019-03-04T21:05:54.972Z,61.28
2019-03-04T21:10:57.059Z,60.87
2019-03-04T21:15:58.778Z,60.63
2019-03-04T21:21:00.580Z,60.41
2019-03-04T21:26:17.835Z,60.26
2019-03-04T21:31:44.333Z,60.26
2019-03-04T21:36:53.192Z,60.13
2019-03-04T21:42:31.940Z,60.03
2019-03-04T21:48:01.426Z,59.99
2019-03-04T21:53:10.654Z,59.93
2019-03-04T21:58:12.350Z,59.94
2019-03-04T22:03:26.524Z,59.98
2019-03-04T22:08:28.170Z,59.95
2019-03-04T22:13:30.058Z,59.93
2019-03-04T22:18:31.725Z,59.93
2019-03-04T22:23:33.437Z,59.98
2019-03-04T22:28:35.133Z,59.86
2019-03-04T22:33:36.814Z,59.78
2019-03-04T22:38:38.456Z,59.74
2019-03-04T22:43:40.063Z,59.73
2019-03-04T22:48:41.774Z,59.67
2019-03-04T22:53:43.320Z,59.64
2019-03-04T22:58:44.984Z,59.67
2019-03-04T23:03:47.127Z,59.71
2019-03-04T23:08:48.834Z,59.66
2019-03-04T23:13:59.671Z,59.66
2019-03-04T23:19:01.410Z,59.67
2019-03-04T23:24:03.233Z,59.71
2019-03-04T23:29:04.925Z,59.71
2019-03-04T23:34:06.670Z,59.68
2019-03-04T23:39:08.361Z,59.62
2019-03-04T23:44:10.051Z,59.63
2019-03-04T23:49:13.559Z,59.61
2019-03-04T23:54:15.157Z,59.57
2019-03-04T23:59:16.727Z,59.58
